sensor_id;sensor_type;location;lat;lon;timestamp;temperature;humidity
25046;DHT22;13044;49.304;12.840;2022-10-31T00:01:35;10.30;99.90
25046;DHT22;13044;49.304;12.840;2022-10-31T00:04:03;10.30;99.90
25046;DHT22;13044;49.304;12.840;2022-10-31T00:06:31;10.30;99.90
25046;DHT22;13044;49.304;12.840;2022-10-31T00:09:00;10.20;99.90
25046;DHT22;13044;49.304;12.840;2022-10-31T00:11:29;10.20;99.90
25046;DHT22;13044;49.304;12.840;2022-10-31T00:13:58;10.20;99.90
25046;DHT22;13044;49.304;12.840;2022-10-31T00:16:26;10.20;99.90
25046;DHT22;13044;49.304;12.840;2022-10-31T00:18:55;10.10;99.90
25046;DHT22;13044;49.304;12.840;2022-10-31T00:21:24;10.10;99.90
25046;DHT22;13044;49.304;12.840;2022-10-31T00:23:51;10.10;99.90
25046;DHT22;13044;49.304;12.840;2022-10-31T00:26:19;10.10;99.90
25046;DHT22;13044;49.304;12.840;2022-10-31T00:28:46;10.10;99.90
25046;DHT22;13044;49.304;12.840;2022-10-31T00:31:13;10.00;99.90
25046;DHT22;13044;49.304;12.840;2022-10-31T00:33:40;10.00;99.90
25046;DHT22;13044;49.304;12.840;2022-10-31T00:36:11;10.00;99.90
25046;DHT22;13044;49.304;12.840;2022-10-31T00:38:43;10.00;99.90
25046;DHT22;13044;49.304;12.840;2022-10-31T00:41:12;10.00;99.90
25046;DHT22;13044;49.304;12.840;2022-10-31T00:43:41;10.00;99.90
25046;DHT22;13044;49.304;12.840;2022-10-31T00:46:12;10.00;99.90
25046;DHT22;13044;49.304;12.840;2022-10-31T00:48:39;9.90;99.90
25046;DHT22;13044;49.304;12.840;2022-10-31T00:51:06;9.90;99.90
25046;DHT22;13044;49.304;12.840;2022-10-31T00:53:33;9.80;99.90
25046;DHT22;13044;49.304;12.840;2022-10-31T00:56:00;9.70;99.90
25046;DHT22;13044;49.304;12.840;2022-10-31T00:58:27;9.70;99.90
25046;DHT22;13044;49.304;12.840;2022-10-31T01:00:53;9.70;99.90
25046;DHT22;13044;49.304;12.840;2022-10-31T01:03:32;9.70;99.90
25046;DHT22;13044;49.304;12.840;2022-10-31T01:06:08;9.70;99.90
25046;DHT22;13044;49.304;12.840;2022-10-31T01:08:37;9.70;99.90
25046;DHT22;13044;49.304;12.840;2022-10-31T01:11:23;9.60;99.90
25046;DHT22;13044;49.304;12.840;2022-10-31T01:13:52;9.60;99.90
25046;DHT22;13044;49.304;12.840;2022-10-31T01:16:21;9.60;99.90
25046;DHT22;13044;49.304;12.840;2022-10-31T01:18:51;9.60;99.90
25046;DHT22;13044;49.304;12.840;2022-10-31T01:21:24;9.50;99.90
25046;DHT22;13044;49.304;12.840;2022-10-31T01:23:55;9.50;99.90
25046;DHT22;13044;49.304;12.840;2022-10-31T01:26:31;9.50;99.90
25046;DHT22;13044;49.304;12.840;2022-10-31T01:29:04;9.40;99.90
25046;DHT22;13044;49.304;12.840;2022-10-31T01:31:38;9.40;99.90
25046;DHT22;13044;49.304;12.840;2022-10-31T01:34:05;9.30;99.90
25046;DHT22;13044;49.304;12.840;2022-10-31T01:36:37;9.40;99.90
25046;DHT22;13044;49.304;12.840;2022-10-31T01:39:12;9.40;99.90
25046;DHT22;13044;49.304;12.840;2022-10-31T01:41:46;9.40;99.90
25046;DHT22;13044;49.304;12.840;2022-10-31T01:49:17;9.30;99.90
25046;DHT22;13044;49.304;12.840;2022-10-31T01:55:13;9.30;99.90
25046;DHT22;13044;49.304;12.840;2022-10-31T01:57:47;9.20;99.90
25046;DHT22;13044;49.304;12.840;2022-10-31T02:00:17;9.20;99.90
25046;DHT22;13044;49.304;12.840;2022-10-31T02:02:46;9.10;99.90
25046;DHT22;13044;49.304;12.840;2022-10-31T02:05:17;9.10;99.90
25046;DHT22;13044;49.304;12.840;2022-10-31T02:07:53;9.10;99.90
25046;DHT22;13044;49.304;12.840;2022-10-31T02:10:22;9.20;99.90
25046;DHT22;13044;49.304;12.840;2022-10-31T02:12:51;9.10;99.90
25046;DHT22;13044;49.304;12.840;2022-10-31T02:15:19;9.10;99.90
25046;DHT22;13044;49.304;12.840;2022-10-31T02:17:46;9.10;99.90
25046;DHT22;13044;49.304;12.840;2022-10-31T02:20:19;9.10;99.90
25046;DHT22;13044;49.304;12.840;2022-10-31T02:26:42;9.20;99.90
25046;DHT22;13044;49.304;12.840;2022-10-31T02:32:05;9.20;99.90
25046;DHT22;13044;49.304;12.840;2022-10-31T02:40:49;9.10;99.90
25046;DHT22;13044;49.304;12.840;2022-10-31T02:43:33;9.10;99.90
25046;DHT22;13044;49.304;12.840;2022-10-31T02:46:11;9.00;99.90
25046;DHT22;13044;49.304;12.840;2022-10-31T02:48:43;9.00;99.90
25046;DHT22;13044;49.304;12.840;2022-10-31T02:51:11;8.90;99.90
25046;DHT22;13044;49.304;12.840;2022-10-31T02:53:38;8.90;99.90
25046;DHT22;13044;49.304;12.840;2022-10-31T02:56:13;8.90;99.90
25046;DHT22;13044;49.304;12.840;2022-10-31T03:08:08;8.80;99.90
25046;DHT22;13044;49.304;12.840;2022-10-31T03:10:54;8.80;99.90
25046;DHT22;13044;49.304;12.840;2022-10-31T03:16:36;8.70;99.90
25046;DHT22;13044;49.304;12.840;2022-10-31T03:19:29;8.70;99.90
25046;DHT22;13044;49.304;12.840;2022-10-31T03:22:05;8.60;99.90
25046;DHT22;13044;49.304;12.840;2022-10-31T03:24:38;8.60;99.90
25046;DHT22;13044;49.304;12.840;2022-10-31T03:27:07;8.60;99.90
25046;DHT22;13044;49.304;12.840;2022-10-31T03:29:36;8.60;99.90
25046;DHT22;13044;49.304;12.840;2022-10-31T03:32:21;8.60;99.90
25046;DHT22;13044;49.304;12.840;2022-10-31T03:34:56;8.50;99.90
25046;DHT22;13044;49.304;12.840;2022-10-31T03:37:28;8.50;99.90
25046;DHT22;13044;49.304;12.840;2022-10-31T03:39:58;8.50;99.90
25046;DHT22;13044;49.304;12.840;2022-10-31T03:42:30;8.50;99.90
25046;DHT22;13044;49.304;12.840;2022-10-31T03:45:06;8.40;99.90
25046;DHT22;13044;49.304;12.840;2022-10-31T03:47:37;8.40;99.90
25046;DHT22;13044;49.304;12.840;2022-10-31T03:50:07;8.40;99.90
25046;DHT22;13044;49.304;12.840;2022-10-31T03:53:06;8.40;99.90
25046;DHT22;13044;49.304;12.840;2022-10-31T03:58:10;8.40;99.90
25046;DHT22;13044;49.304;12.840;2022-10-31T04:00:43;8.40;99.90
25046;DHT22;13044;49.304;12.840;2022-10-31T04:03:14;8.40;99.90
25046;DHT22;13044;49.304;12.840;2022-10-31T04:05:46;8.40;99.90
25046;DHT22;13044;49.304;12.840;2022-10-31T04:08:17;8.40;99.90
25046;DHT22;13044;49.304;12.840;2022-10-31T04:10:49;8.40;99.90
25046;DHT22;13044;49.304;12.840;2022-10-31T04:13:20;8.30;99.90
25046;DHT22;13044;49.304;12.840;2022-10-31T04:15:52;8.30;99.90
25046;DHT22;13044;49.304;12.840;2022-10-31T04:18:22;8.30;99.90
25046;DHT22;13044;49.304;12.840;2022-10-31T04:21:05;8.30;99.90
25046;DHT22;13044;49.304;12.840;2022-10-31T04:23:34;8.40;99.90
25046;DHT22;13044;49.304;12.840;2022-10-31T04:26:02;8.40;99.90
25046;DHT22;13044;49.304;12.840;2022-10-31T04:28:29;8.30;99.90
25046;DHT22;13044;49.304;12.840;2022-10-31T04:30:56;8.30;99.90
25046;DHT22;13044;49.304;12.840;2022-10-31T04:33:23;8.30;99.90
25046;DHT22;13044;49.304;12.840;2022-10-31T04:35:50;8.20;99.90
25046;DHT22;13044;49.304;12.840;2022-10-31T04:38:16;8.20;99.90
25046;DHT22;13044;49.304;12.840;2022-10-31T04:40:45;8.10;99.90
25046;DHT22;13044;49.304;12.840;2022-10-31T04:43:12;8.10;99.90
25046;DHT22;13044;49.304;12.840;2022-10-31T04:45:39;8.10;99.90
25046;DHT22;13044;49.304;12.840;2022-10-31T04:48:06;8.10;99.90
25046;DHT22;13044;49.304;12.840;2022-10-31T04:50:32;8.10;99.90
25046;DHT22;13044;49.304;12.840;2022-10-31T04:52:59;8.10;99.90
25046;DHT22;13044;49.304;12.840;2022-10-31T04:55:26;8.10;99.90
25046;DHT22;13044;49.304;12.840;2022-10-31T04:57:53;8.10;99.90
25046;DHT22;13044;49.304;12.840;2022-10-31T05:00:21;8.10;99.90
25046;DHT22;13044;49.304;12.840;2022-10-31T05:02:49;8.20;99.90
25046;DHT22;13044;49.304;12.840;2022-10-31T05:05:25;8.20;99.90
25046;DHT22;13044;49.304;12.840;2022-10-31T05:07:54;8.10;99.90
25046;DHT22;13044;49.304;12.840;2022-10-31T05:10:27;8.10;99.90
25046;DHT22;13044;49.304;12.840;2022-10-31T05:13:00;8.00;99.90
25046;DHT22;13044;49.304;12.840;2022-10-31T05:15:30;8.00;99.90
25046;DHT22;13044;49.304;12.840;2022-10-31T05:17:57;8.00;99.90
25046;DHT22;13044;49.304;12.840;2022-10-31T05:20:27;8.00;99.90
25046;DHT22;13044;49.304;12.840;2022-10-31T05:22:56;7.90;99.90
25046;DHT22;13044;49.304;12.840;2022-10-31T05:25:26;7.90;99.90
25046;DHT22;13044;49.304;12.840;2022-10-31T05:27:55;7.90;99.90
25046;DHT22;13044;49.304;12.840;2022-10-31T05:30:26;7.80;99.90
25046;DHT22;13044;49.304;12.840;2022-10-31T05:32:54;7.90;99.90
25046;DHT22;13044;49.304;12.840;2022-10-31T05:35:24;7.90;99.90
25046;DHT22;13044;49.304;12.840;2022-10-31T05:37:52;7.80;99.90
25046;DHT22;13044;49.304;12.840;2022-10-31T05:40:20;7.90;99.90
25046;DHT22;13044;49.304;12.840;2022-10-31T05:42:51;7.90;99.90
25046;DHT22;13044;49.304;12.840;2022-10-31T05:45:19;7.90;99.90
25046;DHT22;13044;49.304;12.840;2022-10-31T05:47:55;7.90;99.90
25046;DHT22;13044;49.304;12.840;2022-10-31T05:50:24;7.80;99.90
25046;DHT22;13044;49.304;12.840;2022-10-31T05:52:57;7.80;99.90
25046;DHT22;13044;49.304;12.840;2022-10-31T05:55:29;7.80;99.90
25046;DHT22;13044;49.304;12.840;2022-10-31T05:57:56;7.70;99.90
25046;DHT22;13044;49.304;12.840;2022-10-31T06:00:24;7.70;99.90
25046;DHT22;13044;49.304;12.840;2022-10-31T06:03:06;7.80;99.90
25046;DHT22;13044;49.304;12.840;2022-10-31T06:05:34;7.90;99.90
25046;DHT22;13044;49.304;12.840;2022-10-31T06:08:02;7.80;99.90
25046;DHT22;13044;49.304;12.840;2022-10-31T06:10:29;7.80;99.90
25046;DHT22;13044;49.304;12.840;2022-10-31T06:12:56;7.70;99.90
25046;DHT22;13044;49.304;12.840;2022-10-31T06:15:23;7.80;99.90
25046;DHT22;13044;49.304;12.840;2022-10-31T06:18:04;7.80;99.90
25046;DHT22;13044;49.304;12.840;2022-10-31T06:20:33;7.80;99.90
25046;DHT22;13044;49.304;12.840;2022-10-31T06:23:00;7.80;99.90
25046;DHT22;13044;49.304;12.840;2022-10-31T06:25:28;7.80;99.90
25046;DHT22;13044;49.304;12.840;2022-10-31T06:27:55;7.80;99.90
25046;DHT22;13044;49.304;12.840;2022-10-31T06:30:22;7.80;99.90
25046;DHT22;13044;49.304;12.840;2022-10-31T06:32:49;7.80;99.90
25046;DHT22;13044;49.304;12.840;2022-10-31T06:35:16;7.90;99.90
25046;DHT22;13044;49.304;12.840;2022-10-31T06:37:51;7.80;99.90
25046;DHT22;13044;49.304;12.840;2022-10-31T06:40:22;7.80;99.90
25046;DHT22;13044;49.304;12.840;2022-10-31T06:43:00;7.80;99.90
25046;DHT22;13044;49.304;12.840;2022-10-31T06:45:27;7.80;99.90
25046;DHT22;13044;49.304;12.840;2022-10-31T06:47:55;7.80;99.90
25046;DHT22;13044;49.304;12.840;2022-10-31T06:50:41;7.80;99.90
25046;DHT22;13044;49.304;12.840;2022-10-31T06:53:08;7.90;99.90
25046;DHT22;13044;49.304;12.840;2022-10-31T06:55:40;7.90;99.90
25046;DHT22;13044;49.304;12.840;2022-10-31T06:58:09;7.90;99.90
25046;DHT22;13044;49.304;12.840;2022-10-31T07:00:37;8.00;99.90
25046;DHT22;13044;49.304;12.840;2022-10-31T07:03:07;8.00;99.90
25046;DHT22;13044;49.304;12.840;2022-10-31T07:05:36;8.10;99.90
25046;DHT22;13044;49.304;12.840;2022-10-31T07:08:05;8.20;99.90
25046;DHT22;13044;49.304;12.840;2022-10-31T07:10:35;8.30;99.90
25046;DHT22;13044;49.304;12.840;2022-10-31T07:13:10;8.30;99.90
25046;DHT22;13044;49.304;12.840;2022-10-31T07:15:40;8.40;99.90
25046;DHT22;13044;49.304;12.840;2022-10-31T07:18:09;8.40;99.90
25046;DHT22;13044;49.304;12.840;2022-10-31T07:20:37;8.50;99.90
25046;DHT22;13044;49.304;12.840;2022-10-31T07:23:04;8.50;99.90
25046;DHT22;13044;49.304;12.840;2022-10-31T07:25:32;8.50;99.90
25046;DHT22;13044;49.304;12.840;2022-10-31T07:27:59;8.60;99.90
25046;DHT22;13044;49.304;12.840;2022-10-31T07:30:26;8.60;99.90
25046;DHT22;13044;49.304;12.840;2022-10-31T07:32:53;8.70;99.90
25046;DHT22;13044;49.304;12.840;2022-10-31T07:35:22;8.70;99.90
25046;DHT22;13044;49.304;12.840;2022-10-31T07:37:50;8.80;99.90
25046;DHT22;13044;49.304;12.840;2022-10-31T07:40:18;8.90;99.90
25046;DHT22;13044;49.304;12.840;2022-10-31T07:42:48;8.90;99.90
25046;DHT22;13044;49.304;12.840;2022-10-31T07:45:19;9.00;99.90
25046;DHT22;13044;49.304;12.840;2022-10-31T07:47:51;9.10;99.90
25046;DHT22;13044;49.304;12.840;2022-10-31T07:50:22;9.20;99.90
25046;DHT22;13044;49.304;12.840;2022-10-31T07:53:04;9.20;99.90
25046;DHT22;13044;49.304;12.840;2022-10-31T07:55:33;9.30;99.90
25046;DHT22;13044;49.304;12.840;2022-10-31T07:58:02;9.40;99.90
25046;DHT22;13044;49.304;12.840;2022-10-31T08:00:35;9.50;99.90
25046;DHT22;13044;49.304;12.840;2022-10-31T08:03:05;9.60;99.90
25046;DHT22;13044;49.304;12.840;2022-10-31T08:05:34;9.60;99.90
25046;DHT22;13044;49.304;12.840;2022-10-31T08:08:02;9.70;99.90
25046;DHT22;13044;49.304;12.840;2022-10-31T08:10:31;9.80;99.90
25046;DHT22;13044;49.304;12.840;2022-10-31T08:13:00;9.90;99.90
25046;DHT22;13044;49.304;12.840;2022-10-31T08:15:28;10.00;99.90
25046;DHT22;13044;49.304;12.840;2022-10-31T08:17:55;10.10;99.90
25046;DHT22;13044;49.304;12.840;2022-10-31T08:20:22;10.10;99.90
25046;DHT22;13044;49.304;12.840;2022-10-31T08:22:58;10.20;99.90
25046;DHT22;13044;49.304;12.840;2022-10-31T08:25:27;10.30;99.90
25046;DHT22;13044;49.304;12.840;2022-10-31T08:28:01;10.30;99.90
25046;DHT22;13044;49.304;12.840;2022-10-31T08:30:30;10.40;99.90
25046;DHT22;13044;49.304;12.840;2022-10-31T08:33:10;10.50;99.90
25046;DHT22;13044;49.304;12.840;2022-10-31T08:35:39;10.60;99.90
25046;DHT22;13044;49.304;12.840;2022-10-31T08:38:07;10.60;99.90
25046;DHT22;13044;49.304;12.840;2022-10-31T08:40:35;10.70;99.90
25046;DHT22;13044;49.304;12.840;2022-10-31T08:43:06;10.70;99.90
25046;DHT22;13044;49.304;12.840;2022-10-31T08:45:37;10.80;99.90
25046;DHT22;13044;49.304;12.840;2022-10-31T08:48:06;10.90;99.90
25046;DHT22;13044;49.304;12.840;2022-10-31T08:50:36;11.00;99.90
25046;DHT22;13044;49.304;12.840;2022-10-31T08:53:18;11.10;99.90
25046;DHT22;13044;49.304;12.840;2022-10-31T08:55:46;11.20;99.90
25046;DHT22;13044;49.304;12.840;2022-10-31T08:58:17;11.20;99.90
25046;DHT22;13044;49.304;12.840;2022-10-31T09:00:46;11.30;99.90
25046;DHT22;13044;49.304;12.840;2022-10-31T09:03:23;11.40;99.90
25046;DHT22;13044;49.304;12.840;2022-10-31T09:05:56;11.50;99.90
25046;DHT22;13044;49.304;12.840;2022-10-31T09:08:24;11.50;99.90
25046;DHT22;13044;49.304;12.840;2022-10-31T09:10:51;11.60;99.90
25046;DHT22;13044;49.304;12.840;2022-10-31T09:13:20;11.70;99.90
25046;DHT22;13044;49.304;12.840;2022-10-31T09:15:49;11.80;99.90
25046;DHT22;13044;49.304;12.840;2022-10-31T09:18:21;11.90;99.90
25046;DHT22;13044;49.304;12.840;2022-10-31T09:20:49;12.00;99.90
25046;DHT22;13044;49.304;12.840;2022-10-31T09:23:19;12.10;99.90
25046;DHT22;13044;49.304;12.840;2022-10-31T09:25:48;12.20;99.90
25046;DHT22;13044;49.304;12.840;2022-10-31T09:28:19;12.30;99.90
25046;DHT22;13044;49.304;12.840;2022-10-31T09:30:48;12.40;99.90
25046;DHT22;13044;49.304;12.840;2022-10-31T09:33:16;12.60;99.90
25046;DHT22;13044;49.304;12.840;2022-10-31T09:35:44;12.60;99.90
25046;DHT22;13044;49.304;12.840;2022-10-31T09:38:13;12.70;99.90
25046;DHT22;13044;49.304;12.840;2022-10-31T09:46:33;13.00;99.90
25046;DHT22;13044;49.304;12.840;2022-10-31T09:49:33;13.10;99.90
25046;DHT22;13044;49.304;12.840;2022-10-31T09:52:16;13.10;99.90
25046;DHT22;13044;49.304;12.840;2022-10-31T09:54:57;13.30;99.90
25046;DHT22;13044;49.304;12.840;2022-10-31T09:57:29;13.50;99.90
25046;DHT22;13044;49.304;12.840;2022-10-31T10:00:00;13.50;99.90
25046;DHT22;13044;49.304;12.840;2022-10-31T10:04:56;13.70;99.90
25046;DHT22;13044;49.304;12.840;2022-10-31T10:25:08;14.70;99.90
25046;DHT22;13044;49.304;12.840;2022-10-31T10:30:39;14.90;99.90
25046;DHT22;13044;49.304;12.840;2022-10-31T10:33:15;15.00;99.90
25046;DHT22;13044;49.304;12.840;2022-10-31T10:36:00;15.10;99.90
25046;DHT22;13044;49.304;12.840;2022-10-31T10:41:18;15.30;99.90
25046;DHT22;13044;49.304;12.840;2022-10-31T10:43:49;15.40;99.90
25046;DHT22;13044;49.304;12.840;2022-10-31T10:49:32;15.50;99.90
25046;DHT22;13044;49.304;12.840;2022-10-31T10:55:26;15.80;99.90
25046;DHT22;13044;49.304;12.840;2022-10-31T10:58:02;15.90;99.90
25046;DHT22;13044;49.304;12.840;2022-10-31T11:00:34;16.00;99.90
25046;DHT22;13044;49.304;12.840;2022-10-31T11:03:10;16.10;99.90
25046;DHT22;13044;49.304;12.840;2022-10-31T11:08:07;16.50;99.90
25046;DHT22;13044;49.304;12.840;2022-10-31T11:10:35;16.60;99.90
25046;DHT22;13044;49.304;12.840;2022-10-31T11:13:22;16.60;99.90
25046;DHT22;13044;49.304;12.840;2022-10-31T11:16:02;16.70;99.90
25046;DHT22;13044;49.304;12.840;2022-10-31T11:18:34;16.80;99.90
25046;DHT22;13044;49.304;12.840;2022-10-31T11:21:04;16.90;99.90
25046;DHT22;13044;49.304;12.840;2022-10-31T11:23:32;16.90;99.90
25046;DHT22;13044;49.304;12.840;2022-10-31T11:26:05;16.90;99.90
25046;DHT22;13044;49.304;12.840;2022-10-31T11:28:33;17.00;99.90
25046;DHT22;13044;49.304;12.840;2022-10-31T11:31:08;17.00;99.90
25046;DHT22;13044;49.304;12.840;2022-10-31T11:33:49;17.10;99.90
25046;DHT22;13044;49.304;12.840;2022-10-31T11:36:25;17.10;99.90
25046;DHT22;13044;49.304;12.840;2022-10-31T11:38:54;17.30;99.90
25046;DHT22;13044;49.304;12.840;2022-10-31T11:43:56;17.40;99.90
25046;DHT22;13044;49.304;12.840;2022-10-31T11:46:39;17.70;99.90
25046;DHT22;13044;49.304;12.840;2022-10-31T11:49:33;17.80;99.90
25046;DHT22;13044;49.304;12.840;2022-10-31T11:52:16;17.90;99.90
25046;DHT22;13044;49.304;12.840;2022-10-31T11:54:55;18.00;99.90
25046;DHT22;13044;49.304;12.840;2022-10-31T11:57:31;18.10;99.90
25046;DHT22;13044;49.304;12.840;2022-10-31T12:00:25;18.10;99.90
25046;DHT22;13044;49.304;12.840;2022-10-31T12:08:35;18.30;99.90
25046;DHT22;13044;49.304;12.840;2022-10-31T12:22:08;18.50;99.90
25046;DHT22;13044;49.304;12.840;2022-10-31T12:25:19;18.50;99.90
25046;DHT22;13044;49.304;12.840;2022-10-31T12:37:46;18.50;99.90
25046;DHT22;13044;49.304;12.840;2022-10-31T12:46:48;18.50;99.90
25046;DHT22;13044;49.304;12.840;2022-10-31T12:50:10;18.60;99.90
25046;DHT22;13044;49.304;12.840;2022-10-31T12:58:56;18.60;99.90
25046;DHT22;13044;49.304;12.840;2022-10-31T13:01:33;18.50;99.90
25046;DHT22;13044;49.304;12.840;2022-10-31T13:07:46;18.20;99.90
25046;DHT22;13044;49.304;12.840;2022-10-31T13:10:52;18.10;99.90
25046;DHT22;13044;49.304;12.840;2022-10-31T13:13:31;18.10;99.90
25046;DHT22;13044;49.304;12.840;2022-10-31T13:16:24;18.00;99.90
25046;DHT22;13044;49.304;12.840;2022-10-31T13:19:19;18.00;99.90
25046;DHT22;13044;49.304;12.840;2022-10-31T13:22:20;17.90;99.90
25046;DHT22;13044;49.304;12.840;2022-10-31T13:30:29;18.00;99.90
25046;DHT22;13044;49.304;12.840;2022-10-31T13:35:44;17.80;99.90
25046;DHT22;13044;49.304;12.840;2022-10-31T13:41:37;17.70;99.90
25046;DHT22;13044;49.304;12.840;2022-10-31T13:44:27;17.60;99.90
25046;DHT22;13044;49.304;12.840;2022-10-31T13:46:58;17.60;99.90
25046;DHT22;13044;49.304;12.840;2022-10-31T13:54:39;17.60;99.90
25046;DHT22;13044;49.304;12.840;2022-10-31T14:00:46;17.50;99.90
25046;DHT22;13044;49.304;12.840;2022-10-31T14:02:56;17.50;99.90
25046;DHT22;13044;49.304;12.840;2022-10-31T14:05:26;17.50;99.90
25046;DHT22;13044;49.304;12.840;2022-10-31T14:07:56;17.40;99.90
25046;DHT22;13044;49.304;12.840;2022-10-31T14:10:37;17.30;99.90
25046;DHT22;13044;49.304;12.840;2022-10-31T14:16:06;17.40;99.90
25046;DHT22;13044;49.304;12.840;2022-10-31T14:18:48;17.50;99.90
25046;DHT22;13044;49.304;12.840;2022-10-31T14:23:51;17.40;99.90
25046;DHT22;13044;49.304;12.840;2022-10-31T14:28:55;17.30;99.90
25046;DHT22;13044;49.304;12.840;2022-10-31T14:31:42;17.30;99.90
25046;DHT22;13044;49.304;12.840;2022-10-31T14:37:04;17.30;99.90
25046;DHT22;13044;49.304;12.840;2022-10-31T14:42:53;17.20;99.90
25046;DHT22;13044;49.304;12.840;2022-10-31T14:45:44;17.20;99.90
25046;DHT22;13044;49.304;12.840;2022-10-31T14:48:29;17.10;99.90
25046;DHT22;13044;49.304;12.840;2022-10-31T14:51:23;17.10;99.90
25046;DHT22;13044;49.304;12.840;2022-10-31T14:53:54;17.20;99.90
25046;DHT22;13044;49.304;12.840;2022-10-31T14:56:37;17.10;99.90
25046;DHT22;13044;49.304;12.840;2022-10-31T14:59:15;17.10;99.90
25046;DHT22;13044;49.304;12.840;2022-10-31T15:01:56;17.00;99.90
25046;DHT22;13044;49.304;12.840;2022-10-31T15:04:30;16.90;99.90
25046;DHT22;13044;49.304;12.840;2022-10-31T15:07:06;16.90;99.90
25046;DHT22;13044;49.304;12.840;2022-10-31T15:09:39;16.90;99.90
25046;DHT22;13044;49.304;12.840;2022-10-31T15:12:29;16.80;99.90
25046;DHT22;13044;49.304;12.840;2022-10-31T15:15:09;16.80;99.90
25046;DHT22;13044;49.304;12.840;2022-10-31T15:17:43;16.80;99.90
25046;DHT22;13044;49.304;12.840;2022-10-31T15:20:12;16.80;99.90
25046;DHT22;13044;49.304;12.840;2022-10-31T15:22:44;16.80;99.90
25046;DHT22;13044;49.304;12.840;2022-10-31T15:25:20;16.70;99.90
25046;DHT22;13044;49.304;12.840;2022-10-31T15:27:50;16.70;99.90
25046;DHT22;13044;49.304;12.840;2022-10-31T15:32:46;16.60;99.90
25046;DHT22;13044;49.304;12.840;2022-10-31T15:37:59;16.60;99.90
25046;DHT22;13044;49.304;12.840;2022-10-31T15:40:28;16.60;99.90
25046;DHT22;13044;49.304;12.840;2022-10-31T15:43:01;16.50;99.90
25046;DHT22;13044;49.304;12.840;2022-10-31T15:45:30;16.40;99.90
25046;DHT22;13044;49.304;12.840;2022-10-31T15:47:59;16.40;99.90
25046;DHT22;13044;49.304;12.840;2022-10-31T15:52:58;16.30;99.90
25046;DHT22;13044;49.304;12.840;2022-10-31T15:55:29;16.30;99.90
25046;DHT22;13044;49.304;12.840;2022-10-31T15:58:01;16.20;99.90
25046;DHT22;13044;49.304;12.840;2022-10-31T16:00:35;16.20;99.90
25046;DHT22;13044;49.304;12.840;2022-10-31T16:05:51;16.10;99.90
25046;DHT22;13044;49.304;12.840;2022-10-31T16:14:06;16.10;99.90
25046;DHT22;13044;49.304;12.840;2022-10-31T16:16:46;16.10;99.90
25046;DHT22;13044;49.304;12.840;2022-10-31T16:22:11;16.00;99.90
25046;DHT22;13044;49.304;12.840;2022-10-31T16:24:55;16.00;99.90
25046;DHT22;13044;49.304;12.840;2022-10-31T16:27:32;16.00;99.90
25046;DHT22;13044;49.304;12.840;2022-10-31T16:30:01;16.00;99.90
25046;DHT22;13044;49.304;12.840;2022-10-31T16:37:40;15.90;99.90
25046;DHT22;13044;49.304;12.840;2022-10-31T16:40:12;15.90;99.90
25046;DHT22;13044;49.304;12.840;2022-10-31T16:42:43;16.00;99.90
25046;DHT22;13044;49.304;12.840;2022-10-31T16:45:20;16.00;99.90
25046;DHT22;13044;49.304;12.840;2022-10-31T16:47:49;16.00;99.90
25046;DHT22;13044;49.304;12.840;2022-10-31T16:50:25;15.90;99.90
25046;DHT22;13044;49.304;12.840;2022-10-31T16:52:53;15.90;99.90
25046;DHT22;13044;49.304;12.840;2022-10-31T16:55:46;15.80;99.90
25046;DHT22;13044;49.304;12.840;2022-10-31T16:58:17;15.80;99.90
25046;DHT22;13044;49.304;12.840;2022-10-31T17:00:45;15.70;99.90
25046;DHT22;13044;49.304;12.840;2022-10-31T17:03:13;15.70;99.90
25046;DHT22;13044;49.304;12.840;2022-10-31T17:05:41;15.70;99.90
25046;DHT22;13044;49.304;12.840;2022-10-31T17:08:07;15.60;99.90
25046;DHT22;13044;49.304;12.840;2022-10-31T17:10:35;15.60;99.90
25046;DHT22;13044;49.304;12.840;2022-10-31T17:13:04;15.50;99.90
25046;DHT22;13044;49.304;12.840;2022-10-31T17:15:38;15.50;99.90
25046;DHT22;13044;49.304;12.840;2022-10-31T17:18:11;15.50;99.90
25046;DHT22;13044;49.304;12.840;2022-10-31T17:20:39;15.50;99.90
25046;DHT22;13044;49.304;12.840;2022-10-31T17:23:08;15.50;99.90
25046;DHT22;13044;49.304;12.840;2022-10-31T17:25:37;15.40;99.90
25046;DHT22;13044;49.304;12.840;2022-10-31T17:28:04;15.40;99.90
25046;DHT22;13044;49.304;12.840;2022-10-31T17:30:32;15.40;99.90
25046;DHT22;13044;49.304;12.840;2022-10-31T17:33:00;15.40;99.90
25046;DHT22;13044;49.304;12.840;2022-10-31T17:35:27;15.30;99.90
25046;DHT22;13044;49.304;12.840;2022-10-31T17:37:54;15.30;99.90
25046;DHT22;13044;49.304;12.840;2022-10-31T17:40:21;15.20;99.90
25046;DHT22;13044;49.304;12.840;2022-10-31T17:42:52;15.20;99.90
25046;DHT22;13044;49.304;12.840;2022-10-31T17:45:21;15.20;99.90
25046;DHT22;13044;49.304;12.840;2022-10-31T17:47:50;15.10;99.90
25046;DHT22;13044;49.304;12.840;2022-10-31T17:50:23;15.10;99.90
25046;DHT22;13044;49.304;12.840;2022-10-31T17:52:51;15.00;99.90
25046;DHT22;13044;49.304;12.840;2022-10-31T17:55:19;15.00;99.90
25046;DHT22;13044;49.304;12.840;2022-10-31T17:57:46;14.90;99.90
25046;DHT22;13044;49.304;12.840;2022-10-31T18:00:16;14.90;99.90
25046;DHT22;13044;49.304;12.840;2022-10-31T18:02:46;14.80;99.90
25046;DHT22;13044;49.304;12.840;2022-10-31T18:05:13;14.80;99.90
25046;DHT22;13044;49.304;12.840;2022-10-31T18:07:39;14.80;99.90
25046;DHT22;13044;49.304;12.840;2022-10-31T18:10:07;14.70;99.90
25046;DHT22;13044;49.304;12.840;2022-10-31T18:12:35;14.70;99.90
25046;DHT22;13044;49.304;12.840;2022-10-31T18:15:03;14.70;99.90
25046;DHT22;13044;49.304;12.840;2022-10-31T18:17:30;14.60;99.90
25046;DHT22;13044;49.304;12.840;2022-10-31T18:19:57;14.60;99.90
25046;DHT22;13044;49.304;12.840;2022-10-31T18:22:24;14.60;99.90
25046;DHT22;13044;49.304;12.840;2022-10-31T18:24:51;14.50;99.90
25046;DHT22;13044;49.304;12.840;2022-10-31T18:27:18;14.50;99.90
25046;DHT22;13044;49.304;12.840;2022-10-31T18:29:47;14.50;99.90
25046;DHT22;13044;49.304;12.840;2022-10-31T18:32:14;14.40;99.90
25046;DHT22;13044;49.304;12.840;2022-10-31T18:34:41;14.40;99.90
25046;DHT22;13044;49.304;12.840;2022-10-31T18:37:08;14.30;99.90
25046;DHT22;13044;49.304;12.840;2022-10-31T18:39:35;14.30;99.90
25046;DHT22;13044;49.304;12.840;2022-10-31T18:42:02;14.20;99.90
25046;DHT22;13044;49.304;12.840;2022-10-31T18:44:32;14.20;99.90
25046;DHT22;13044;49.304;12.840;2022-10-31T18:46:59;14.10;99.90
25046;DHT22;13044;49.304;12.840;2022-10-31T18:49:26;14.10;99.90
25046;DHT22;13044;49.304;12.840;2022-10-31T18:52:01;14.00;99.90
25046;DHT22;13044;49.304;12.840;2022-10-31T18:54:27;13.90;99.90